createdAt,value
2018-10-12T00:00:32.378Z,58.85
2018-10-12T00:01:32.292Z,58.83
2018-10-12T00:02:32.403Z,58.83
2018-10-12T00:03:32.081Z,58.88
2018-10-12T00:04:32.437Z,58.85
2018-10-12T00:05:32.310Z,58.83
2018-10-12T00:06:32.454Z,58.86
2018-10-12T00:07:32.563Z,58.88
2018-10-12T00:08:32.356Z,58.84
2018-10-12T00:09:32.175Z,58.83
2018-10-12T00:10:32.391Z,58.84
2018-10-12T00:11:32.177Z,58.84
2018-10-12T00:12:32.736Z,58.82
2018-10-12T00:13:32.313Z,58.87
2018-10-12T00:14:32.271Z,58.9
2018-10-12T00:15:32.250Z,58.87
2018-10-12T00:16:32.442Z,58.87
2018-10-12T00:17:32.385Z,58.89
2018-10-12T00:18:32.098Z,58.9
2018-10-12T00:19:33.060Z,58.91
2018-10-12T00:20:32.207Z,58.87
2018-10-12T00:21:32.477Z,58.88
2018-10-12T00:22:32.363Z,58.92
2018-10-12T00:23:32.388Z,58.94
2018-10-12T00:24:32.258Z,58.87
2018-10-12T00:25:32.130Z,58.87
2018-10-12T00:26:32.012Z,58.85
2018-10-12T00:27:32.349Z,58.84
2018-10-12T00:28:32.125Z,58.89
2018-10-12T00:29:32.161Z,58.84
2018-10-12T00:30:32.193Z,58.88
2018-10-12T00:31:32.231Z,58.88
2018-10-12T00:32:32.181Z,58.86
2018-10-12T00:33:32.752Z,58.89
2018-10-12T00:34:32.244Z,58.93
2018-10-12T00:35:32.202Z,58.88
2018-10-12T00:36:32.729Z,58.88
2018-10-12T00:37:32.303Z,58.9
2018-10-12T00:38:32.086Z,58.9
2018-10-12T00:39:32.168Z,58.9
2018-10-12T00:40:32.674Z,58.92
2018-10-12T00:41:33.100Z,58.9
2018-10-12T00:42:32.210Z,58.91
2018-10-12T00:43:32.264Z,58.93
2018-10-12T00:44:32.437Z,58.89
2018-10-12T00:45:32.082Z,58.89
2018-10-12T00:46:32.185Z,58.95
2018-10-12T00:47:32.270Z,58.9
2018-10-12T00:48:32.077Z,58.9
2018-10-12T00:49:32.229Z,58.91
2018-10-12T00:50:32.319Z,58.9
2018-10-12T00:51:32.431Z,58.92
2018-10-12T00:52:32.158Z,58.91
2018-10-12T00:53:32.135Z,58.9
2018-10-12T00:54:32.421Z,58.88
2018-10-12T00:55:32.356Z,58.9
2018-10-12T00:56:32.291Z,58.89
2018-10-12T00:57:32.093Z,58.87
2018-10-12T00:58:32.171Z,58.89
2018-10-12T00:59:33.128Z,58.91
2018-10-12T01:00:32.193Z,58.84
2018-10-12T01:01:32.047Z,58.87
2018-10-12T01:02:32.176Z,58.9
2018-10-12T01:03:32.164Z,58.84
2018-10-12T01:04:32.039Z,58.92
2018-10-12T01:05:32.332Z,58.91
2018-10-12T01:06:32.610Z,58.91
2018-10-12T01:07:32.100Z,58.91
2018-10-12T01:08:32.164Z,58.9
2018-10-12T01:09:32.289Z,58.84
2018-10-12T01:10:32.148Z,58.9
2018-10-12T01:11:32.136Z,58.91
2018-10-12T01:12:32.318Z,58.92
2018-10-12T01:13:32.263Z,58.88
2018-10-12T01:14:32.063Z,58.9
2018-10-12T01:15:32.351Z,58.9
2018-10-12T01:16:32.220Z,58.9
2018-10-12T01:17:32.230Z,58.9
2018-10-12T01:18:32.203Z,58.9
2018-10-12T01:19:32.142Z,58.9
2018-10-12T01:20:32.475Z,58.9
2018-10-12T01:21:32.126Z,58.89
2018-10-12T01:22:32.708Z,58.88
2018-10-12T01:23:32.592Z,58.91
2018-10-12T01:24:32.090Z,58.92
2018-10-12T01:25:32.298Z,58.95
2018-10-12T01:26:32.209Z,58.9
2018-10-12T01:27:32.235Z,58.89
2018-10-12T01:28:32.352Z,58.92
2018-10-12T01:29:32.226Z,58.93
2018-10-12T01:30:32.074Z,58.93
2018-10-12T01:31:32.123Z,58.92
2018-10-12T01:32:31.975Z,58.91
2018-10-12T01:33:32.456Z,58.94
2018-10-12T01:34:32.179Z,58.92
2018-10-12T01:35:32.329Z,58.91
2018-10-12T01:36:32.224Z,58.91
2018-10-12T01:37:32.425Z,58.93
2018-10-12T01:38:32.214Z,58.92
2018-10-12T01:39:32.297Z,58.94
2018-10-12T01:40:32.360Z,58.93
2018-10-12T01:41:32.280Z,58.93
2018-10-12T01:42:32.265Z,58.89
2018-10-12T01:43:32.235Z,58.93
2018-10-12T01:44:32.484Z,58.95
2018-10-12T01:45:32.507Z,58.93
2018-10-12T01:46:32.142Z,58.99
2018-10-12T01:47:32.227Z,58.94
2018-10-12T01:48:32.137Z,58.93
2018-10-12T01:49:32.278Z,58.94
2018-10-12T01:50:32.080Z,58.93
2018-10-12T01:51:32.116Z,58.95
2018-10-12T01:52:32.222Z,58.97
2018-10-12T01:53:32.021Z,58.93
2018-10-12T01:54:32.176Z,58.95
2018-10-12T01:55:32.355Z,58.94
2018-10-12T01:56:32.352Z,58.94
2018-10-12T01:57:32.208Z,58.93
2018-10-12T01:58:32.437Z,58.95
2018-10-12T01:59:32.343Z,58.91
2018-10-12T02:00:32.143Z,58.96
2018-10-12T02:01:32.197Z,58.95
2018-10-12T02:02:32.494Z,58.95
2018-10-12T02:03:32.038Z,58.9
2018-10-12T02:04:32.131Z,58.93
2018-10-12T02:05:32.147Z,58.95
2018-10-12T02:06:32.252Z,58.93
2018-10-12T02:07:32.075Z,58.93
2018-10-12T02:08:32.403Z,58.93
2018-10-12T02:09:32.041Z,58.93
2018-10-12T02:10:32.245Z,58.93
2018-10-12T02:11:32.412Z,58.92
2018-10-12T02:12:32.252Z,58.97
2018-10-12T02:13:32.160Z,58.95
2018-10-12T02:14:32.283Z,58.98
2018-10-12T02:15:32.493Z,58.97
2018-10-12T02:16:32.510Z,58.97
2018-10-12T02:17:32.372Z,58.91
2018-10-12T02:18:32.503Z,58.96
2018-10-12T02:19:32.074Z,58.92
2018-10-12T02:20:32.076Z,58.93
2018-10-12T02:21:32.342Z,58.93
2018-10-12T02:22:32.422Z,58.94
2018-10-12T02:23:32.248Z,58.89
2018-10-12T02:24:32.426Z,58.89
2018-10-12T02:25:32.229Z,58.9
2018-10-12T02:26:31.945Z,58.94
2018-10-12T02:27:32.238Z,58.95
2018-10-12T02:28:32.165Z,58.93
2018-10-12T02:29:32.298Z,58.9
2018-10-12T02:30:32.137Z,58.93
2018-10-12T02:31:32.177Z,58.93
2018-10-12T02:32:32.051Z,58.91
2018-10-12T02:33:32.065Z,58.93
2018-10-12T02:34:32.150Z,58.92
2018-10-12T02:35:32.066Z,58.97
2018-10-12T02:36:32.028Z,58.93
2018-10-12T02:37:32.028Z,58.94
2018-10-12T02:38:32.181Z,58.91
2018-10-12T02:39:32.294Z,58.92
2018-10-12T02:40:31.994Z,58.94
2018-10-12T02:41:32.161Z,58.93
2018-10-12T02:42:32.246Z,58.93
2018-10-12T02:43:32.556Z,58.93
2018-10-12T02:44:32.154Z,58.93
2018-10-12T02:45:32.465Z,58.92
2018-10-12T02:46:32.354Z,58.93
2018-10-12T02:47:32.001Z,58.93
2018-10-12T02:48:32.202Z,58.93
2018-10-12T02:49:32.213Z,58.89
2018-10-12T02:50:31.995Z,58.91
2018-10-12T02:51:32.414Z,58.94
2018-10-12T02:52:32.320Z,58.9
2018-10-12T02:53:32.007Z,58.93
2018-10-12T02:54:32.366Z,58.91
2018-10-12T02:55:32.311Z,58.95
2018-10-12T02:56:31.991Z,58.91
2018-10-12T02:57:32.320Z,58.9
2018-10-12T02:58:32.140Z,58.91
2018-10-12T02:59:32.286Z,58.9
2018-10-12T03:00:32.157Z,58.93
2018-10-12T03:01:32.175Z,58.96
2018-10-12T03:02:32.113Z,58.9
2018-10-12T03:03:33.359Z,58.9
2018-10-12T03:04:32.208Z,58.9
2018-10-12T03:05:32.027Z,58.89
2018-10-12T03:06:32.254Z,58.85
2018-10-12T03:07:32.042Z,58.91
2018-10-12T03:08:32.142Z,58.89
2018-10-12T03:09:32.194Z,58.91
2018-10-12T03:10:32.222Z,58.93
2018-10-12T03:11:32.332Z,58.96
2018-10-12T03:12:32.139Z,58.93
2018-10-12T03:13:32.617Z,58.92
2018-10-12T03:14:32.285Z,58.93
2018-10-12T03:15:32.200Z,58.9
2018-10-12T03:16:32.237Z,58.91
2018-10-12T03:17:32.124Z,58.9
2018-10-12T03:18:32.157Z,58.94
2018-10-12T03:19:32.124Z,58.94
2018-10-12T03:20:32.097Z,58.92
2018-10-12T03:21:32.151Z,58.91
2018-10-12T03:22:32.555Z,58.92
2018-10-12T03:23:32.003Z,58.94
2018-10-12T03:24:32.423Z,58.94
2018-10-12T03:25:32.169Z,58.94
2018-10-12T03:26:32.463Z,58.94
2018-10-12T03:27:32.211Z,58.91
2018-10-12T03:28:32.129Z,58.92
2018-10-12T03:29:32.126Z,58.9
2018-10-12T03:30:32.341Z,58.92
2018-10-12T03:31:32.493Z,58.94
2018-10-12T03:32:32.095Z,58.92
2018-10-12T03:33:32.163Z,58.93
2018-10-12T03:34:32.410Z,58.95
2018-10-12T03:35:32.310Z,58.93
2018-10-12T03:36:32.153Z,58.94
2018-10-12T03:37:32.374Z,58.97
2018-10-12T03:38:32.049Z,58.93
2018-10-12T03:39:32.993Z,58.91
2018-10-12T03:40:32.364Z,58.96
2018-10-12T03:41:32.085Z,58.96
2018-10-12T03:42:32.097Z,58.94
2018-10-12T03:43:32.210Z,58.95
2018-10-12T03:44:32.390Z,58.94
2018-10-12T03:45:32.365Z,58.92
2018-10-12T03:46:32.109Z,58.94
2018-10-12T03:47:31.948Z,58.9
2018-10-12T03:48:32.267Z,58.89
2018-10-12T03:49:32.349Z,58.94
2018-10-12T03:50:32.217Z,58.89
2018-10-12T03:51:31.971Z,58.91
2018-10-12T03:52:32.039Z,58.94
2018-10-12T03:53:32.194Z,58.94
2018-10-12T03:54:31.986Z,58.93
2018-10-12T03:55:32.011Z,58.94
2018-10-12T03:56:32.249Z,58.97
2018-10-12T03:57:32.358Z,58.9
2018-10-12T03:58:31.938Z,58.9
2018-10-12T03:59:32.074Z,58.88
2018-10-12T04:00:31.948Z,58.92
2018-10-12T04:01:31.966Z,58.91
2018-10-12T04:02:32.837Z,58.92
2018-10-12T04:03:32.289Z,58.88
2018-10-12T04:04:32.427Z,58.96
2018-10-12T04:05:32.136Z,58.93
2018-10-12T04:06:32.163Z,58.95
2018-10-12T04:07:32.169Z,58.95
2018-10-12T04:08:31.972Z,58.91
2018-10-12T04:09:31.989Z,58.89
2018-10-12T04:10:32.085Z,58.92
2018-10-12T04:11:32.155Z,58.9
2018-10-12T04:12:33.626Z,58.9
2018-10-12T04:13:32.079Z,58.94
2018-10-12T04:14:32.216Z,58.89
2018-10-12T04:15:31.938Z,58.88
2018-10-12T04:16:32.640Z,58.9
2018-10-12T04:17:31.983Z,58.86
2018-10-12T04:18:32.124Z,58.85
2018-10-12T04:19:31.892Z,58.87
2018-10-12T04:20:32.184Z,58.87
2018-10-12T04:21:31.990Z,58.89
2018-10-12T04:22:32.035Z,58.95
2018-10-12T04:23:32.123Z,58.93
2018-10-12T04:24:32.330Z,58.92
2018-10-12T04:25:32.199Z,58.92
2018-10-12T04:26:32.904Z,58.94
2018-10-12T04:27:32.020Z,58.92
2018-10-12T04:28:32.087Z,58.93
2018-10-12T04:29:32.499Z,58.86
2018-10-12T04:30:32.240Z,58.91
2018-10-12T04:31:32.074Z,58.89
2018-10-12T04:32:32.127Z,58.85
2018-10-12T04:33:32.209Z,58.86
2018-10-12T04:34:32.056Z,58.85
2018-10-12T04:35:32.453Z,58.88
2018-10-12T04:36:32.234Z,58.83
2018-10-12T04:37:31.950Z,58.89
2018-10-12T04:38:32.351Z,58.89
2018-10-12T04:39:32.032Z,58.92
2018-10-12T04:40:32.095Z,58.93
2018-10-12T04:41:32.165Z,58.91
2018-10-12T04:42:32.069Z,58.85
2018-10-12T04:43:32.080Z,58.88
2018-10-12T04:44:32.230Z,58.87
2018-10-12T04:45:32.082Z,58.88
2018-10-12T04:46:32.287Z,58.93
2018-10-12T04:47:32.029Z,58.9
2018-10-12T04:48:32.119Z,58.88
2018-10-12T04:49:32.416Z,58.89
2018-10-12T04:50:32.080Z,58.86
2018-10-12T04:51:32.477Z,58.86
2018-10-12T04:52:32.174Z,58.91
2018-10-12T04:53:32.308Z,58.93
2018-10-12T04:54:32.076Z,58.82
2018-10-12T04:55:32.104Z,58.87
2018-10-12T04:56:31.978Z,58.84
2018-10-12T04:57:32.029Z,58.83
2018-10-12T04:58:32.127Z,58.88
2018-10-12T04:59:32.301Z,58.89
2018-10-12T05:00:33.050Z,58.89
2018-10-12T05:01:31.987Z,58.84
2018-10-12T05:02:32.091Z,58.82
2018-10-12T05:03:32.163Z,58.86
2018-10-12T05:04:32.026Z,58.85
2018-10-12T05:05:32.019Z,58.84
2018-10-12T05:06:32.058Z,58.85
2018-10-12T05:07:32.719Z,58.84
2018-10-12T05:08:32.058Z,58.83
2018-10-12T05:09:32.267Z,58.89
2018-10-12T05:10:32.372Z,58.88
2018-10-12T05:11:32.383Z,58.83
2018-10-12T05:12:31.993Z,58.86
2018-10-12T05:13:32.194Z,58.85
2018-10-12T05:14:32.554Z,58.81
2018-10-12T05:15:32.268Z,58.83
2018-10-12T05:16:32.123Z,58.84
2018-10-12T05:17:32.070Z,58.82
2018-10-12T05:18:31.944Z,58.8
2018-10-12T05:19:32.382Z,58.85
2018-10-12T05:20:32.165Z,58.82
2018-10-12T05:21:32.268Z,58.82
2018-10-12T05:22:31.992Z,58.81
2018-10-12T05:23:32.305Z,58.79
2018-10-12T05:24:32.193Z,58.86
2018-10-12T05:25:32.051Z,58.79
2018-10-12T05:26:32.107Z,58.8
2018-10-12T05:27:32.091Z,58.79
2018-10-12T05:28:32.157Z,58.89
2018-10-12T05:29:32.191Z,58.8
2018-10-12T05:30:32.229Z,58.83
2018-10-12T05:31:31.970Z,58.87
2018-10-12T05:32:32.248Z,58.79
2018-10-12T05:33:32.134Z,58.79
2018-10-12T05:34:32.075Z,58.79
2018-10-12T05:35:32.563Z,58.8
2018-10-12T05:36:32.071Z,58.77
2018-10-12T05:37:32.094Z,58.81
2018-10-12T05:38:32.051Z,58.84
2018-10-12T05:39:32.069Z,58.83
2018-10-12T05:40:32.072Z,58.85
2018-10-12T05:41:32.027Z,58.8
2018-10-12T05:42:32.149Z,58.77
2018-10-12T05:43:34.388Z,58.77
2018-10-12T05:44:32.254Z,58.77
2018-10-12T05:45:32.133Z,58.8
2018-10-12T05:46:32.000Z,58.77
2018-10-12T05:47:32.155Z,58.78
2018-10-12T05:48:32.342Z,58.76
2018-10-12T05:49:32.463Z,58.79
2018-10-12T05:50:32.154Z,58.78
2018-10-12T05:51:32.016Z,58.77
2018-10-12T05:52:32.106Z,58.8
2018-10-12T05:53:32.311Z,58.81
2018-10-12T05:54:31.972Z,58.82
2018-10-12T05:55:31.969Z,58.82
2018-10-12T05:56:32.134Z,58.77
2018-10-12T05:57:32.411Z,58.8
2018-10-12T05:58:31.942Z,58.75
2018-10-12T05:59:32.079Z,58.76
2018-10-12T06:00:32.209Z,58.75
2018-10-12T06:01:31.999Z,58.82
2018-10-12T06:02:32.074Z,58.8
2018-10-12T06:03:32.122Z,58.78
2018-10-12T06:04:32.050Z,58.78
2018-10-12T06:05:32.051Z,58.82
2018-10-12T06:06:32.152Z,58.82
2018-10-12T06:07:32.253Z,58.81
2018-10-12T06:08:32.404Z,58.81
2018-10-12T06:09:33.982Z,58.81
2018-10-12T06:10:32.086Z,58.84
2018-10-12T06:11:33.636Z,58.84
2018-10-12T06:12:32.376Z,58.79
2018-10-12T06:13:32.130Z,58.82
2018-10-12T06:14:32.200Z,58.79
2018-10-12T06:15:33.676Z,58.74
2018-10-12T06:16:32.393Z,58.74
2018-10-12T06:17:32.020Z,58.76
2018-10-12T06:18:32.149Z,58.79
2018-10-12T06:19:32.380Z,58.84
2018-10-12T06:20:32.206Z,58.8
2018-10-12T06:21:33.084Z,58.8
2018-10-12T06:22:32.323Z,58.76
2018-10-12T06:23:31.956Z,58.77
2018-10-12T06:24:32.443Z,58.73
2018-10-12T06:25:32.567Z,58.77
2018-10-12T06:26:32.374Z,58.77
2018-10-12T06:27:32.194Z,58.78
2018-10-12T06:28:32.283Z,58.75
2018-10-12T06:29:32.421Z,58.75
2018-10-12T06:30:31.997Z,58.75
2018-10-12T06:31:32.547Z,58.75
2018-10-12T06:32:32.255Z,58.8
2018-10-12T06:33:32.133Z,58.79
2018-10-12T06:34:32.151Z,58.75
2018-10-12T06:35:32.258Z,58.79
2018-10-12T06:36:32.378Z,58.78
2018-10-12T06:37:32.017Z,58.75
2018-10-12T06:38:32.225Z,58.78
2018-10-12T06:39:32.104Z,58.78
2018-10-12T06:40:32.209Z,58.72
2018-10-12T06:41:34.021Z,58.8
2018-10-12T06:42:32.174Z,58.82
2018-10-12T06:43:31.974Z,58.79
2018-10-12T06:44:32.184Z,58.77
2018-10-12T06:45:32.346Z,58.81
2018-10-12T06:46:32.864Z,58.75
2018-10-12T06:47:32.170Z,58.76
2018-10-12T06:48:32.195Z,58.77
2018-10-12T06:49:31.925Z,58.76
2018-10-12T06:50:32.207Z,58.71
2018-10-12T06:51:32.421Z,58.79
2018-10-12T06:52:31.914Z,58.8
2018-10-12T06:53:32.251Z,58.77
2018-10-12T06:54:32.397Z,58.73
2018-10-12T06:55:32.102Z,58.77
2018-10-12T06:56:32.122Z,58.77
2018-10-12T06:57:32.188Z,58.74
2018-10-12T06:58:32.079Z,58.77
2018-10-12T06:59:32.140Z,58.77
2018-10-12T07:00:31.897Z,58.76
2018-10-12T07:01:31.988Z,58.73
2018-10-12T07:02:32.009Z,58.79
2018-10-12T07:03:32.025Z,58.77
2018-10-12T07:04:32.144Z,58.79
2018-10-12T07:05:32.750Z,58.77
2018-10-12T07:06:32.218Z,58.73
2018-10-12T07:07:32.444Z,58.8
2018-10-12T07:08:32.036Z,58.79
2018-10-12T07:09:32.139Z,58.76
2018-10-12T07:10:32.112Z,58.77
2018-10-12T07:11:32.125Z,58.74
2018-10-12T07:12:32.082Z,58.73
2018-10-12T07:13:31.955Z,58.81
2018-10-12T07:14:31.937Z,58.76
2018-10-12T07:15:31.938Z,58.74
2018-10-12T07:16:31.949Z,58.76
2018-10-12T07:17:32.160Z,58.78
2018-10-12T07:18:31.972Z,58.72
2018-10-12T07:19:33.692Z,58.72
2018-10-12T07:20:32.337Z,58.73
2018-10-12T07:21:32.155Z,58.71
2018-10-12T07:22:32.232Z,58.72
2018-10-12T07:23:32.082Z,58.72
2018-10-12T07:24:31.965Z,58.76
2018-10-12T07:25:32.466Z,58.75
2018-10-12T07:26:31.977Z,58.73
2018-10-12T07:27:31.887Z,58.71
2018-10-12T07:28:32.089Z,58.71
2018-10-12T07:29:32.104Z,58.68
2018-10-12T07:30:32.362Z,58.72
2018-10-12T07:31:33.294Z,58.88
2018-10-12T07:32:32.200Z,59.36
2018-10-12T07:33:32.481Z,59.77
2018-10-12T07:34:32.352Z,60
2018-10-12T07:35:32.386Z,60.13
2018-10-12T07:36:33.018Z,60.43
2018-10-12T07:37:32.835Z,60.77
2018-10-12T07:38:32.144Z,60.59
2018-10-12T07:39:32.277Z,60.78
2018-10-12T07:40:31.881Z,60.71
2018-10-12T07:41:31.972Z,60.45
2018-10-12T07:42:33.443Z,60.3
2018-10-12T07:43:32.151Z,60.28
2018-10-12T07:44:32.539Z,60.34
2018-10-12T07:45:32.153Z,60.42
2018-10-12T07:46:32.126Z,60.37
2018-10-12T07:47:33.334Z,60.31
2018-10-12T07:48:32.124Z,60.4
2018-10-12T07:49:31.905Z,60.32
2018-10-12T07:50:31.986Z,60.39
2018-10-12T07:51:32.077Z,60.24
2018-10-12T07:52:31.936Z,60.19
2018-10-12T07:53:32.157Z,60.13
2018-10-12T07:54:32.098Z,60.2
2018-10-12T07:55:31.931Z,60.2
2018-10-12T07:56:32.257Z,60.23
2018-10-12T07:57:32.089Z,60.13
2018-10-12T07:58:32.932Z,60.13
2018-10-12T07:59:32.352Z,60.06
2018-10-12T08:00:33.945Z,60.21
2018-10-12T08:01:32.128Z,60.09
2018-10-12T08:02:32.074Z,59.99
2018-10-12T08:03:32.534Z,60.13
2018-10-12T08:04:31.912Z,59.85
2018-10-12T08:05:32.184Z,59.75
2018-10-12T08:06:32.900Z,59.75
2018-10-12T08:07:32.029Z,59.79
2018-10-12T08:08:32.266Z,59.67
2018-10-12T08:09:33.247Z,59.65
2018-10-12T08:10:31.862Z,59.6
2018-10-12T08:11:32.187Z,59.53
2018-10-12T08:12:32.388Z,59.49
2018-10-12T08:13:32.931Z,59.58
2018-10-12T08:14:32.448Z,59.58
2018-10-12T08:15:31.974Z,59.58
2018-10-12T08:16:32.253Z,59.6
2018-10-12T08:17:32.080Z,59.51
2018-10-12T08:18:32.044Z,59.55
2018-10-12T08:19:32.063Z,59.52
2018-10-12T08:20:34.165Z,59.52
2018-10-12T08:21:32.000Z,59.55
2018-10-12T08:22:32.371Z,59.52
2018-10-12T08:23:32.090Z,59.51
2018-10-12T08:24:32.083Z,59.48
2018-10-12T08:25:31.940Z,59.49
2018-10-12T08:26:32.098Z,59.48
2018-10-12T08:27:31.899Z,59.43
2018-10-12T08:28:31.967Z,59.47
2018-10-12T08:29:32.073Z,59.45
2018-10-12T08:30:31.953Z,59.42
2018-10-12T08:31:33.396Z,59.44
2018-10-12T08:32:32.120Z,59.38
2018-10-12T08:33:32.071Z,59.46
2018-10-12T08:34:32.050Z,59.42
2018-10-12T08:35:32.201Z,59.44
2018-10-12T08:36:33.535Z,59.4
2018-10-12T08:37:31.874Z,59.42
2018-10-12T08:38:31.924Z,59.37
2018-10-12T08:39:32.093Z,59.37
2018-10-12T08:40:31.984Z,59.36
2018-10-12T08:41:32.071Z,59.32
2018-10-12T08:42:31.903Z,59.37
2018-10-12T08:43:32.111Z,59.37
2018-10-12T08:44:32.118Z,59.37
2018-10-12T08:45:31.909Z,59.36
2018-10-12T08:46:32.113Z,59.31
2018-10-12T08:47:32.686Z,59.33
2018-10-12T08:48:32.027Z,59.38
2018-10-12T08:49:32.374Z,59.32
2018-10-12T08:50:32.299Z,59.35
2018-10-12T08:51:32.111Z,59.38
2018-10-12T08:52:32.024Z,59.35
2018-10-12T08:53:32.324Z,59.3
2018-10-12T08:54:32.134Z,59.32
2018-10-12T08:55:33.287Z,59.25
2018-10-12T08:56:31.938Z,59.28
2018-10-12T08:57:32.184Z,59.24
2018-10-12T08:58:32.436Z,59.25
2018-10-12T08:59:32.100Z,59.23
2018-10-12T09:00:32.101Z,59.22
2018-10-12T09:01:32.087Z,59.25
2018-10-12T09:02:31.936Z,59.24
2018-10-12T09:03:32.670Z,59.21
2018-10-12T09:04:32.161Z,59.25
2018-10-12T09:05:32.160Z,59.22
2018-10-12T09:06:32.100Z,59.17
2018-10-12T09:07:32.158Z,59.22
2018-10-12T09:08:32.216Z,59.19
2018-10-12T09:09:32.188Z,59.2
2018-10-12T09:10:32.026Z,59.13
2018-10-12T09:11:32.997Z,59.2
2018-10-12T09:12:31.998Z,59.2
2018-10-12T09:13:31.985Z,59.19
2018-10-12T09:14:32.162Z,59.15
2018-10-12T09:15:32.532Z,59.17
2018-10-12T09:16:32.116Z,59.19
2018-10-12T09:17:32.070Z,59.16
2018-10-12T09:18:32.093Z,59.09
2018-10-12T09:19:32.051Z,59.15
2018-10-12T09:20:35.328Z,59.12
2018-10-12T09:21:32.108Z,59.13
2018-10-12T09:22:32.069Z,59.12
2018-10-12T09:23:31.872Z,59.11
2018-10-12T09:24:31.864Z,59.09
2018-10-12T09:25:32.169Z,59.1
2018-10-12T09:26:31.991Z,59.09
2018-10-12T09:27:32.330Z,59.09
2018-10-12T09:28:33.226Z,59.1
2018-10-12T09:29:32.026Z,59.12
2018-10-12T09:30:31.852Z,59.1
2018-10-12T09:31:32.259Z,59.1
2018-10-12T09:32:32.228Z,59.07
2018-10-12T09:33:32.313Z,59.07
2018-10-12T09:34:32.275Z,59.14
2018-10-12T09:35:32.151Z,59.12
2018-10-12T09:36:33.564Z,59.04
2018-10-12T09:37:32.276Z,59.06
2018-10-12T09:38:32.288Z,59.09
2018-10-12T09:39:32.213Z,59.03
2018-10-12T09:40:31.855Z,59.04
2018-10-12T09:41:32.003Z,59.05
2018-10-12T09:42:31.987Z,59.06
2018-10-12T09:43:32.427Z,59.03
2018-10-12T09:44:32.423Z,59.03
2018-10-12T09:45:31.902Z,59
2018-10-12T09:46:32.147Z,59.01
2018-10-12T09:47:32.284Z,59.01
2018-10-12T09:48:32.216Z,59.01
2018-10-12T09:49:32.173Z,59.01
2018-10-12T09:50:32.864Z,59.01
2018-10-12T09:51:32.040Z,58.94
2018-10-12T09:52:32.015Z,58.97
2018-10-12T09:53:32.002Z,58.98
2018-10-12T09:54:32.475Z,59.01
2018-10-12T09:55:32.100Z,58.99
2018-10-12T09:56:32.135Z,59
2018-10-12T09:57:32.149Z,58.97
2018-10-12T09:58:32.019Z,58.99
2018-10-12T09:59:31.824Z,58.99
2018-10-12T10:00:31.936Z,59.01
2018-10-12T10:01:32.126Z,59.03
2018-10-12T10:02:32.444Z,58.99
2018-10-12T10:03:31.922Z,58.96
2018-10-12T10:04:32.047Z,58.99
2018-10-12T10:05:32.533Z,58.97
2018-10-12T10:06:32.180Z,58.99
2018-10-12T10:07:33.785Z,59
2018-10-12T10:08:35.874Z,58.93
2018-10-12T10:09:32.022Z,58.97
2018-10-12T10:10:32.326Z,58.96
2018-10-12T10:11:32.310Z,58.94
2018-10-12T10:12:32.522Z,58.92
2018-10-12T10:13:32.194Z,58.95
2018-10-12T10:14:31.952Z,58.94
2018-10-12T10:15:33.390Z,58.99
2018-10-12T10:16:32.145Z,58.97
2018-10-12T10:17:31.937Z,58.98
2018-10-12T10:18:32.279Z,58.94
2018-10-12T10:19:32.499Z,58.91
2018-10-12T10:20:31.868Z,58.97
2018-10-12T10:21:32.365Z,58.94
2018-10-12T10:22:33.716Z,58.92
2018-10-12T10:23:31.987Z,58.91
2018-10-12T10:24:32.371Z,58.89
2018-10-12T10:25:32.281Z,58.89
2018-10-12T10:26:32.092Z,58.87
2018-10-12T10:27:32.334Z,58.84
2018-10-12T10:28:32.559Z,58.89
2018-10-12T10:29:32.230Z,58.91
2018-10-12T10:30:32.336Z,58.84
2018-10-12T10:31:32.265Z,58.92
2018-10-12T10:32:32.279Z,58.9
2018-10-12T10:33:32.037Z,58.9
2018-10-12T10:34:31.970Z,58.92
2018-10-12T10:35:32.181Z,58.9
2018-10-12T10:36:31.941Z,58.88
2018-10-12T10:37:32.071Z,58.91
2018-10-12T10:38:32.316Z,58.9
2018-10-12T10:39:32.139Z,58.87
2018-10-12T10:40:32.111Z,58.91
2018-10-12T10:41:32.163Z,58.86
2018-10-12T10:42:32.228Z,58.87
2018-10-12T10:43:32.144Z,58.88
2018-10-12T10:44:32.038Z,58.89
2018-10-12T10:45:32.159Z,58.9
2018-10-12T10:46:32.453Z,59.04
2018-10-12T10:47:31.859Z,59.26
2018-10-12T10:48:32.154Z,59
2018-10-12T10:49:32.098Z,59.01
2018-10-12T10:50:31.849Z,59.18
2018-10-12T10:51:32.247Z,59.27
2018-10-12T10:52:32.020Z,59.42
2018-10-12T10:53:33.092Z,59.66
2018-10-12T10:54:31.919Z,59.45
2018-10-12T10:55:32.536Z,59.51
2018-10-12T10:56:31.980Z,59.5
2018-10-12T10:57:31.969Z,59.55
2018-10-12T10:58:32.015Z,59.58
2018-10-12T10:59:31.952Z,59.71
2018-10-12T11:00:31.941Z,59.58
2018-10-12T11:01:31.926Z,59.71
2018-10-12T11:02:31.952Z,59.62
2018-10-12T11:03:32.298Z,59.58
2018-10-12T11:04:32.099Z,59.64
2018-10-12T11:05:32.037Z,59.71
2018-10-12T11:06:32.124Z,59.58
2018-10-12T11:07:31.912Z,59.63
2018-10-12T11:08:32.008Z,59.6
2018-10-12T11:09:31.985Z,59.55
2018-10-12T11:10:32.013Z,59.6
2018-10-12T11:11:32.240Z,59.61
2018-10-12T11:12:33.025Z,59.64
2018-10-12T11:13:32.013Z,59.7
2018-10-12T11:14:32.984Z,59.67
2018-10-12T11:15:32.337Z,59.65
2018-10-12T11:16:32.062Z,59.68
2018-10-12T11:17:31.823Z,59.71
2018-10-12T11:18:32.120Z,59.65
2018-10-12T11:19:33.044Z,59.45
2018-10-12T11:20:31.931Z,59.33
2018-10-12T11:21:31.916Z,59.29
2018-10-12T11:22:32.044Z,59.37
2018-10-12T11:23:32.081Z,59.45
2018-10-12T11:24:33.615Z,59.28
2018-10-12T11:25:31.994Z,59.29
2018-10-12T11:26:32.824Z,59.2
2018-10-12T11:27:31.989Z,59.21
2018-10-12T11:28:32.165Z,59.26
2018-10-12T11:29:32.135Z,59.27
2018-10-12T11:30:31.962Z,59.2
2018-10-12T11:31:32.396Z,59.19
2018-10-12T11:32:32.262Z,59.19
2018-10-12T11:33:32.222Z,59.18
2018-10-12T11:34:33.017Z,59.21
2018-10-12T11:35:32.161Z,59.24
2018-10-12T11:36:31.918Z,59.22
2018-10-12T11:37:32.311Z,59.15
2018-10-12T11:38:33.899Z,59.18
2018-10-12T11:39:32.234Z,59.14
2018-10-12T11:40:32.235Z,59.17
2018-10-12T11:41:32.124Z,59.11
2018-10-12T11:42:32.269Z,59.07
2018-10-12T11:43:31.918Z,59.13
2018-10-12T11:44:32.059Z,59.11
2018-10-12T11:45:33.128Z,59.14
2018-10-12T11:46:32.375Z,59.13
2018-10-12T11:47:31.877Z,59.13
2018-10-12T11:48:32.473Z,59.07
2018-10-12T11:49:31.773Z,59.1
2018-10-12T11:50:32.101Z,59.13
2018-10-12T11:51:32.048Z,59.11
2018-10-12T11:52:32.143Z,59.08
2018-10-12T11:53:32.139Z,59.11
2018-10-12T11:54:31.929Z,59.06
2018-10-12T11:55:31.784Z,59.11
2018-10-12T11:56:31.996Z,59.1
2018-10-12T11:57:32.293Z,59.07
2018-10-12T11:58:32.146Z,59.1
2018-10-12T11:59:32.597Z,59.06
2018-10-12T12:00:32.081Z,59
2018-10-12T12:01:31.948Z,59.04
2018-10-12T12:02:32.123Z,59.08
2018-10-12T12:03:32.099Z,59.12
2018-10-12T12:04:32.358Z,59.07
2018-10-12T12:05:32.485Z,59.09
2018-10-12T12:06:31.787Z,58.99
2018-10-12T12:07:31.835Z,59.05
2018-10-12T12:08:32.267Z,58.99
2018-10-12T12:09:32.170Z,59.04
2018-10-12T12:10:32.303Z,59.04
2018-10-12T12:11:31.911Z,58.97
2018-10-12T12:12:32.253Z,59
2018-10-12T12:13:32.597Z,58.99
2018-10-12T12:14:32.144Z,59.02
2018-10-12T12:15:32.193Z,58.99
2018-10-12T12:16:32.109Z,59.03
2018-10-12T12:17:32.194Z,59.03
2018-10-12T12:18:32.113Z,59.01
2018-10-12T12:19:32.738Z,58.98
2018-10-12T12:20:31.990Z,59
2018-10-12T12:21:32.495Z,58.97
2018-10-12T12:22:31.942Z,58.97
2018-10-12T12:23:32.070Z,58.96
2018-10-12T12:24:32.029Z,58.93
2018-10-12T12:25:32.145Z,58.95
2018-10-12T12:26:31.887Z,58.99
2018-10-12T12:27:32.155Z,59.02
2018-10-12T12:28:32.297Z,58.98
2018-10-12T12:29:32.089Z,58.99
2018-10-12T12:30:31.828Z,58.96
2018-10-12T12:31:31.977Z,58.98
2018-10-12T12:32:31.862Z,58.99
2018-10-12T12:33:31.947Z,58.96
2018-10-12T12:34:33.314Z,59.02
2018-10-12T12:35:36.969Z,59.02
2018-10-12T12:36:31.904Z,59.01
2018-10-12T12:37:31.983Z,58.98
2018-10-12T12:38:32.041Z,58.95
2018-10-12T12:39:32.076Z,58.96
2018-10-12T12:40:31.809Z,58.97
2018-10-12T12:41:32.522Z,58.95
2018-10-12T12:42:32.027Z,58.94
2018-10-12T12:43:31.853Z,58.93
2018-10-12T12:44:32.192Z,58.95
2018-10-12T12:45:31.995Z,58.96
2018-10-12T12:46:31.812Z,59.03
2018-10-12T12:47:33.883Z,58.92
2018-10-12T12:48:37.715Z,58.97
2018-10-12T12:49:34.463Z,58.99
2018-10-12T12:50:32.075Z,58.97
2018-10-12T12:51:31.956Z,58.91
2018-10-12T12:52:32.157Z,58.92
2018-10-12T12:53:31.861Z,58.95
2018-10-12T12:54:32.488Z,58.96
2018-10-12T12:55:31.955Z,58.96
2018-10-12T12:56:32.055Z,58.93